Time;durP1;ratioP1;P1;durP2;ratioP2;P2;SDS_P1;SDS_P2;PMS_P1;PMS_P2;Temp;Humidity;BMP_temperature;BMP_pressure;BME280_temperature;BME280_humidity;BME280_pressure;Samples;Min_cycle;Max_cycle;Signal;HPM_P1;HPM_P2
2021/04/18 00:00:36;;;;;;;22.70;8.20;;;;;;;;;;4991850;28;20217;-69
2021/04/18 00:03:01;;;;;;;18.00;7.30;;;;;;;;;;4990710;28;20229;-69
2021/04/18 00:05:29;;;;;;;19.43;7.63;;;;;;;;;;4995653;28;20183;-68
2021/04/18 00:08:02;;;;;;;16.47;7.97;;;;;;;;;;4991566;28;20183;-69
2021/04/18 00:10:29;;;;;;;20.80;8.60;;;;;;;;;;4995039;28;20188;-69
2021/04/18 00:12:54;;;;;;;19.93;8.27;;;;;;;;;;4990662;28;20211;-70
2021/04/18 00:15:20;;;;;;;24.40;9.47;;;;;;;;;;4998663;28;20186;-69
2021/04/18 00:17:45;;;;;;;18.63;8.50;;;;;;;;;;4987955;28;20663;-69
2021/04/18 00:20:11;;;;;;;15.70;7.57;;;;;;;;;;4996567;28;20655;-69
2021/04/18 00:22:41;;;;;;;19.60;8.07;;;;;;;;;;4992278;28;20179;-69
2021/04/18 00:25:08;;;;;;;19.07;7.93;;;;;;;;;;4995299;28;20220;-69
2021/04/18 00:27:33;;;;;;;15.83;7.50;;;;;;;;;;4996993;28;20189;-69
2021/04/18 00:29:59;;;;;;;19.07;6.73;;;;;;;;;;4988310;28;20200;-69
2021/04/18 00:32:25;;;;;;;19.30;7.33;;;;;;;;;;4993621;28;20549;-70
2021/04/18 00:34:51;;;;;;;22.87;7.83;;;;;;;;;;4990414;28;20655;-69
2021/04/18 00:37:16;;;;;;;22.63;7.43;;;;;;;;;;4996171;28;20183;-69
2021/04/18 00:39:42;;;;;;;20.60;7.97;;;;;;;;;;4991796;28;20647;-69
2021/04/18 00:42:07;;;;;;;20.27;7.80;;;;;;;;;;4994771;28;20225;-69
2021/04/18 00:44:32;;;;;;;18.30;8.50;;;;;;;;;;4987603;28;20254;-69
2021/04/18 00:46:59;;;;;;;19.50;7.90;;;;;;;;;;4998777;28;20261;-69
2021/04/18 00:49:24;;;;;;;16.90;8.10;;;;;;;;;;4982727;28;20194;-69
2021/04/18 00:51:49;;;;;;;20.37;7.53;;;;;;;;;;4993240;28;20207;-69
2021/04/18 00:54:15;;;;;;;16.43;8.37;;;;;;;;;;4992291;28;20187;-69
2021/04/18 00:56:40;;;;;;;24.10;9.53;;;;;;;;;;4994517;28;20183;-68
2021/04/18 00:59:05;;;;;;;16.27;7.70;;;;;;;;;;5000516;28;20262;-68
2021/04/18 01:01:31;;;;;;;16.63;8.17;;;;;;;;;;4987342;28;20246;-69
2021/04/18 01:03:56;;;;;;;17.67;8.60;;;;;;;;;;4990405;28;20202;-69
2021/04/18 01:06:21;;;;;;;22.97;8.97;;;;;;;;;;4986658;28;20265;-69
2021/04/18 01:08:47;;;;;;;21.00;8.50;;;;;;;;;;5001735;28;20187;-69
2021/04/18 01:11:12;;;;;;;22.90;9.20;;;;;;;;;;4985275;28;20211;-69
2021/04/18 01:13:38;;;;;;;27.77;9.07;;;;;;;;;;5000355;28;20183;-69
2021/04/18 01:16:03;;;;;;;22.47;9.13;;;;;;;;;;4981188;28;20194;-69
2021/04/18 01:18:29;;;;;;;22.73;8.93;;;;;;;;;;5007659;28;20734;-69
2021/04/18 01:21:21;;;;;;;19.13;8.70;;;;;;;;;;4982750;28;20179;-68
2021/04/18 01:23:47;;;;;;;21.33;8.70;;;;;;;;;;4989616;28;20198;-69
2021/04/18 01:26:14;;;;;;;17.70;9.30;;;;;;;;;;4986035;28;20270;-69
2021/04/18 01:28:39;;;;;;;24.33;9.40;;;;;;;;;;4994545;28;20187;-69
2021/04/18 01:31:04;;;;;;;20.10;9.20;;;;;;;;;;4986460;28;20298;-69
2021/04/18 01:33:30;;;;;;;26.67;9.27;;;;;;;;;;4992592;28;20183;-69
2021/04/18 01:35:56;;;;;;;17.93;9.10;;;;;;;;;;4993311;28;20183;-69
2021/04/18 01:38:22;;;;;;;24.57;10.07;;;;;;;;;;4988554;28;20187;-69
2021/04/18 01:40:47;;;;;;;21.20;9.43;;;;;;;;;;4992107;28;20188;-69
2021/04/18 01:43:16;;;;;;;22.43;9.80;;;;;;;;;;4987231;28;20285;-69
2021/04/18 01:45:42;;;;;;;27.40;10.63;;;;;;;;;;4996771;28;20199;-69
2021/04/18 01:48:09;;;;;;;21.53;10.10;;;;;;;;;;4982565;28;20183;-69
2021/04/18 01:50:40;;;;;;;29.00;10.57;;;;;;;;;;4992767;28;20653;-69
2021/04/18 01:53:06;;;;;;;25.97;11.10;;;;;;;;;;4984139;28;20650;-69
2021/04/18 01:55:31;;;;;;;23.07;10.53;;;;;;;;;;4994936;28;20200;-68
2021/04/18 01:57:56;;;;;;;27.67;11.80;;;;;;;;;;4990702;28;20191;-68
2021/04/18 02:00:22;;;;;;;21.33;11.10;;;;;;;;;;4994560;28;20191;-69
2021/04/18 02:02:47;;;;;;;30.57;12.17;;;;;;;;;;4999022;28;20721;-69
2021/04/18 02:05:13;;;;;;;29.67;13.77;;;;;;;;;;4993631;28;20194;-69
2021/04/18 02:07:40;;;;;;;25.67;11.90;;;;;;;;;;4990478;28;20241;-68
2021/04/18 02:10:06;;;;;;;26.13;12.10;;;;;;;;;;4988764;28;20197;-69
2021/04/18 02:12:32;;;;;;;25.03;12.67;;;;;;;;;;4995032;28;20191;-69
2021/04/18 02:14:57;;;;;;;30.43;13.20;;;;;;;;;;4989617;28;20199;-69
2021/04/18 02:17:22;;;;;;;31.93;12.33;;;;;;;;;;4989406;28;20218;-70
2021/04/18 02:19:48;;;;;;;27.33;11.90;;;;;;;;;;4983241;28;20230;-69
2021/04/18 02:22:13;;;;;;;28.97;13.03;;;;;;;;;;4993501;28;20183;-69
2021/04/18 02:24:38;;;;;;;32.53;12.13;;;;;;;;;;4983085;28;20195;-69
2021/04/18 02:27:04;;;;;;;27.90;12.17;;;;;;;;;;4994611;28;20187;-69
2021/04/18 02:29:29;;;;;;;32.07;11.77;;;;;;;;;;4990760;28;20179;-69
2021/04/18 02:31:55;;;;;;;29.13;12.97;;;;;;;;;;4995037;28;20207;-69
2021/04/18 02:34:21;;;;;;;24.00;12.27;;;;;;;;;;4999915;28;20262;-69
2021/04/18 02:36:46;;;;;;;30.17;13.27;;;;;;;;;;4984389;28;20202;-69
2021/04/18 02:39:12;;;;;;;32.23;12.70;;;;;;;;;;4997587;28;20183;-69
2021/04/18 02:41:37;;;;;;;29.17;13.07;;;;;;;;;;4985301;28;20202;-69
2021/04/18 02:44:02;;;;;;;35.70;12.27;;;;;;;;;;4989561;28;20235;-69
2021/04/18 02:46:28;;;;;;;26.53;13.20;;;;;;;;;;4982754;28;20233;-69
2021/04/18 02:48:53;;;;;;;35.20;13.97;;;;;;;;;;4991161;28;20227;-69
2021/04/18 02:51:19;;;;;;;30.60;13.87;;;;;;;;;;4984204;28;20268;-70
2021/04/18 02:53:44;;;;;;;31.13;13.70;;;;;;;;;;4997151;28;20204;-69
2021/04/18 02:56:09;;;;;;;32.50;14.57;;;;;;;;;;4983142;28;20281;-69
2021/04/18 02:58:35;;;;;;;26.17;13.37;;;;;;;;;;4994637;28;20269;-69
2021/04/18 03:01:00;;;;;;;27.60;14.83;;;;;;;;;;4986611;28;20284;-68
2021/04/18 03:03:25;;;;;;;30.17;14.10;;;;;;;;;;4998273;28;20302;-69
2021/04/18 03:05:51;;;;;;;34.53;13.10;;;;;;;;;;4985217;28;20195;-69
2021/04/18 03:08:16;;;;;;;26.23;12.20;;;;;;;;;;4997930;28;20183;-69
2021/04/18 03:10:41;;;;;;;28.43;14.33;;;;;;;;;;4992995;28;20796;-69
2021/04/18 03:13:07;;;;;;;34.60;14.43;;;;;;;;;;4984893;28;20624;-69
2021/04/18 03:15:32;;;;;;;33.50;15.10;;;;;;;;;;4991176;28;20234;-68
2021/04/18 03:17:59;;;;;;;34.47;14.57;;;;;;;;;;4992446;28;20256;-69
2021/04/18 03:20:24;;;;;;;34.10;15.07;;;;;;;;;;4990436;28;20222;-69
2021/04/18 03:22:50;;;;;;;32.03;14.80;;;;;;;;;;4982197;28;20218;-69
2021/04/18 03:25:15;;;;;;;35.23;17.10;;;;;;;;;;4990023;28;20294;-69
2021/04/18 03:27:41;;;;;;;32.40;16.13;;;;;;;;;;4996577;28;20233;-69
2021/04/18 03:30:07;;;;;;;39.93;17.07;;;;;;;;;;4991708;28;20195;-69
2021/04/18 03:32:33;;;;;;;37.23;15.77;;;;;;;;;;4995981;28;20215;-69
2021/04/18 03:34:59;;;;;;;32.50;15.60;;;;;;;;;;4999182;28;20225;-69
2021/04/18 03:37:24;;;;;;;35.30;15.90;;;;;;;;;;5005263;28;20187;-69
2021/04/18 03:39:49;;;;;;;44.00;17.93;;;;;;;;;;4987896;28;20288;-69
2021/04/18 03:42:15;;;;;;;34.83;16.77;;;;;;;;;;4995579;28;20603;-69
2021/04/18 03:44:40;;;;;;;34.87;16.90;;;;;;;;;;4984278;28;20230;-68
2021/04/18 03:47:06;;;;;;;37.43;15.77;;;;;;;;;;4999044;28;20706;-69
2021/04/18 03:49:31;;;;;;;33.50;17.87;;;;;;;;;;4989311;28;20229;-69
2021/04/18 03:51:56;;;;;;;35.73;17.23;;;;;;;;;;5000727;28;20238;-69
2021/04/18 03:54:22;;;;;;;37.77;16.43;;;;;;;;;;4994100;28;20212;-69
2021/04/18 03:56:51;;;;;;;36.37;17.57;;;;;;;;;;4997301;28;20188;-69
2021/04/18 03:59:17;;;;;;;37.97;17.67;;;;;;;;;;4987156;28;20730;-68
2021/04/18 04:01:43;;;;;;;40.93;17.47;;;;;;;;;;4999463;28;20193;-69
2021/04/18 04:04:09;;;;;;;34.80;18.87;;;;;;;;;;4985602;28;21986;-69
2021/04/18 04:06:35;;;;;;;41.10;18.43;;;;;;;;;;4992161;28;20199;-69
2021/04/18 04:09:01;;;;;;;47.23;19.33;;;;;;;;;;4999728;28;20225;-69
2021/04/18 04:11:26;;;;;;;40.37;18.20;;;;;;;;;;4990735;28;20253;-68
2021/04/18 04:13:51;;;;;;;34.67;17.00;;;;;;;;;;5001142;28;20195;-69
2021/04/18 04:16:17;;;;;;;32.23;17.60;;;;;;;;;;4982346;28;20661;-68
2021/04/18 04:18:42;;;;;;;30.37;16.10;;;;;;;;;;4999467;28;20241;-68
2021/04/18 04:21:07;;;;;;;33.67;17.57;;;;;;;;;;4987745;28;20712;-69
2021/04/18 04:23:34;;;;;;;38.87;18.50;;;;;;;;;;4994352;28;20286;-68
2021/04/18 04:26:00;;;;;;;41.63;19.63;;;;;;;;;;4984210;28;20206;-68
2021/04/18 04:28:25;;;;;;;34.93;18.90;;;;;;;;;;4992619;28;20187;-68
2021/04/18 04:30:51;;;;;;;35.57;18.73;;;;;;;;;;4985727;28;20212;-69
2021/04/18 04:33:16;;;;;;;38.07;20.20;;;;;;;;;;5001755;28;20197;-69
2021/04/18 04:35:43;;;;;;;40.40;20.63;;;;;;;;;;4986212;28;20210;-68
2021/04/18 04:38:08;;;;;;;35.00;19.33;;;;;;;;;;4990671;28;20341;-68
2021/04/18 04:40:33;;;;;;;37.37;20.10;;;;;;;;;;4990142;28;20662;-68
2021/04/18 04:42:59;;;;;;;43.83;19.17;;;;;;;;;;4990203;28;20209;-69
2021/04/18 04:45:24;;;;;;;41.07;19.00;;;;;;;;;;4993404;28;20191;-68
2021/04/18 04:47:49;;;;;;;41.47;18.47;;;;;;;;;;4982318;28;20183;-69
2021/04/18 04:50:15;;;;;;;29.37;16.73;;;;;;;;;;4992646;28;20326;-69
2021/04/18 04:52:40;;;;;;;27.83;16.03;;;;;;;;;;4988086;28;20651;-69
2021/04/18 04:55:06;;;;;;;35.93;16.73;;;;;;;;;;4993565;28;20195;-69
2021/04/18 04:57:32;;;;;;;28.27;16.63;;;;;;;;;;4985819;28;20192;-69
2021/04/18 04:59:57;;;;;;;30.00;17.20;;;;;;;;;;4992301;28;20328;-69
2021/04/18 05:02:23;;;;;;;33.33;17.20;;;;;;;;;;4982289;28;20210;-69
2021/04/18 05:04:48;;;;;;;35.93;17.47;;;;;;;;;;4993218;28;20213;-69
2021/04/18 05:07:13;;;;;;;31.23;16.30;;;;;;;;;;4983611;28;22814;-68
2021/04/18 05:09:39;;;;;;;34.03;16.80;;;;;;;;;;4989101;28;20186;-69
2021/04/18 05:12:05;;;;;;;29.90;16.93;;;;;;;;;;4991888;28;20210;-69
2021/04/18 05:14:30;;;;;;;32.50;17.60;;;;;;;;;;4987042;28;20183;-69
2021/04/18 05:16:56;;;;;;;35.10;18.97;;;;;;;;;;4990804;28;20176;-69
2021/04/18 05:19:21;;;;;;;39.23;19.77;;;;;;;;;;4985814;28;20187;-70
2021/04/18 05:21:46;;;;;;;48.77;20.27;;;;;;;;;;4990859;28;20217;-69
2021/04/18 05:24:12;;;;;;;38.93;21.73;;;;;;;;;;4979900;28;20188;-69
2021/04/18 05:26:37;;;;;;;43.63;20.27;;;;;;;;;;4992518;28;20612;-69
2021/04/18 05:29:02;;;;;;;46.20;20.73;;;;;;;;;;4981038;28;20180;-69
2021/04/18 05:31:28;;;;;;;41.93;18.63;;;;;;;;;;4991348;28;20207;-69
2021/04/18 05:33:53;;;;;;;39.10;19.97;;;;;;;;;;4982841;28;20566;-69
2021/04/18 05:36:18;;;;;;;38.50;20.10;;;;;;;;;;4995540;28;20195;-68
2021/04/18 05:38:44;;;;;;;40.93;20.00;;;;;;;;;;4981056;28;20565;-69
2021/04/18 05:41:09;;;;;;;36.57;18.33;;;;;;;;;;4990744;28;20171;-69
2021/04/18 05:43:35;;;;;;;36.93;20.20;;;;;;;;;;4990353;28;20266;-69
2021/04/18 05:46:00;;;;;;;42.77;18.83;;;;;;;;;;4983123;28;20264;-69
2021/04/18 05:48:25;;;;;;;36.93;18.63;;;;;;;;;;4987651;28;20180;-69
2021/04/18 05:50:51;;;;;;;43.43;19.47;;;;;;;;;;4985452;28;20218;-69
2021/04/18 05:53:16;;;;;;;40.27;19.40;;;;;;;;;;4990871;28;20587;-69
2021/04/18 05:55:42;;;;;;;38.50;18.43;;;;;;;;;;4981573;28;20550;-69
2021/04/18 05:58:10;;;;;;;33.07;18.87;;;;;;;;;;4987870;28;20635;-70
2021/04/18 06:00:35;;;;;;;36.03;19.30;;;;;;;;;;4983213;28;20245;-69
2021/04/18 06:03:00;;;;;;;36.70;18.70;;;;;;;;;;4988694;28;20622;-69
2021/04/18 06:05:26;;;;;;;35.07;19.37;;;;;;;;;;4980643;28;20235;-69
2021/04/18 06:07:51;;;;;;;34.83;18.33;;;;;;;;;;4985339;28;20234;-69
2021/04/18 06:10:16;;;;;;;34.10;18.80;;;;;;;;;;4979841;28;20194;-70
2021/04/18 06:12:42;;;;;;;35.93;18.57;;;;;;;;;;4986865;28;20678;-69
2021/04/18 06:15:08;;;;;;;38.73;18.57;;;;;;;;;;4991009;28;20191;-70
2021/04/18 06:17:34;;;;;;;32.73;18.77;;;;;;;;;;4978200;28;20608;-69
2021/04/18 06:19:59;;;;;;;35.60;19.03;;;;;;;;;;4991832;28;20269;-70
2021/04/18 06:22:25;;;;;;;36.73;18.13;;;;;;;;;;4982548;28;20187;-69
2021/04/18 06:24:50;;;;;;;32.27;17.47;;;;;;;;;;4991893;28;20186;-69
2021/04/18 06:27:16;;;;;;;33.70;17.77;;;;;;;;;;4983648;28;20690;-69
2021/04/18 06:29:41;;;;;;;33.07;17.17;;;;;;;;;;4989887;28;20187;-69
2021/04/18 06:32:07;;;;;;;26.57;15.73;;;;;;;;;;4978126;28;20578;-69
2021/04/18 06:34:32;;;;;;;23.57;15.20;;;;;;;;;;4988819;28;20482;-69
2021/04/18 06:36:57;;;;;;;25.67;15.37;;;;;;;;;;4981281;28;20253;-69
2021/04/18 06:39:23;;;;;;;25.77;15.40;;;;;;;;;;4992994;28;20242;-68
2021/04/18 06:41:52;;;;;;;22.30;14.40;;;;;;;;;;4980248;28;20182;-68
2021/04/18 06:44:19;;;;;;;22.70;14.60;;;;;;;;;;4992642;28;20306;-68
2021/04/18 06:46:44;;;;;;;21.13;13.50;;;;;;;;;;4989995;28;20682;-69
2021/04/18 06:49:10;;;;;;;20.67;14.17;;;;;;;;;;4979195;28;20194;-69
2021/04/18 06:51:37;;;;;;;21.00;13.57;;;;;;;;;;4988654;28;20285;-69
2021/04/18 06:54:03;;;;;;;21.07;14.07;;;;;;;;;;4980092;28;20718;-69
2021/04/18 06:56:29;;;;;;;23.97;14.27;;;;;;;;;;4991023;28;20697;-68
2021/04/18 06:58:58;;;;;;;23.43;12.53;;;;;;;;;;4981414;28;20576;-69
2021/04/18 07:01:24;;;;;;;20.37;13.10;;;;;;;;;;4995010;28;20267;-69
2021/04/18 07:04:11;;;;;;;19.73;13.20;;;;;;;;;;4985099;28;20210;-69
2021/04/18 07:06:39;;;;;;;18.93;12.33;;;;;;;;;;4993886;28;20190;-69
2021/04/18 07:09:05;;;;;;;21.17;12.57;;;;;;;;;;4984149;28;20194;-69
2021/04/18 07:11:50;;;;;;;21.73;13.23;;;;;;;;;;4993288;28;20203;-68
2021/04/18 07:14:33;;;;;;;20.97;12.93;;;;;;;;;;4980947;28;20191;-70
2021/04/18 07:17:10;;;;;;;18.07;11.97;;;;;;;;;;4992758;28;20230;-69
2021/04/18 07:19:37;;;;;;;18.67;12.67;;;;;;;;;;4982270;28;20211;-69
2021/04/18 07:22:03;;;;;;;20.50;11.90;;;;;;;;;;4987272;28;20647;-69
2021/04/18 07:24:29;;;;;;;21.57;12.87;;;;;;;;;;4983111;28;20180;-69
2021/04/18 07:26:57;;;;;;;20.10;12.17;;;;;;;;;;5000604;28;20290;-69
2021/04/18 07:29:24;;;;;;;20.57;11.93;;;;;;;;;;4985590;28;20625;-69
2021/04/18 07:31:49;;;;;;;20.37;12.50;;;;;;;;;;4995305;28;20231;-68
2021/04/18 07:34:20;;;;;;;19.47;12.73;;;;;;;;;;4990862;28;20190;-68
2021/04/18 07:36:48;;;;;;;20.17;13.23;;;;;;;;;;4984856;28;20203;-69
2021/04/18 07:39:15;;;;;;;19.43;13.97;;;;;;;;;;4992100;28;20187;-69
2021/04/18 07:41:44;;;;;;;25.23;15.03;;;;;;;;;;4988905;28;20187;-69
2021/04/18 07:44:15;;;;;;;18.77;13.40;;;;;;;;;;4991812;28;20255;-69
2021/04/18 07:46:52;;;;;;;19.00;12.40;;;;;;;;;;4986053;28;20190;-69
2021/04/18 07:49:19;;;;;;;21.80;12.80;;;;;;;;;;4991336;28;20592;-68
2021/04/18 07:51:46;;;;;;;20.07;13.30;;;;;;;;;;4984666;28;20211;-69
2021/04/18 07:54:13;;;;;;;18.85;12.40;;;;;;;;;;4993409;28;20265;-69
2021/04/18 07:56:49;;;;;;;19.57;12.80;;;;;;;;;;4988268;28;20544;-69
2021/04/18 07:59:15;;;;;;;19.97;13.83;;;;;;;;;;4995399;28;20183;-69
2021/04/18 08:01:41;;;;;;;24.20;14.73;;;;;;;;;;4983360;28;20179;-69
2021/04/18 08:04:09;;;;;;;22.80;14.27;;;;;;;;;;4996181;28;20750;-70
2021/04/18 08:06:35;;;;;;;21.17;14.27;;;;;;;;;;4982375;28;20183;-69
2021/04/18 08:09:14;;;;;;;20.40;13.83;;;;;;;;;;4992589;28;20229;-69
2021/04/18 08:11:39;;;;;;;19.75;13.45;;;;;;;;;;4987826;28;20214;-69
2021/04/18 08:14:16;;;;;;;20.60;13.20;;;;;;;;;;4987080;28;20185;-69
2021/04/18 08:16:41;;;;;;;19.58;11.77;;;;;;;;;;4989022;28;20202;-68
2021/04/18 08:19:11;;;;;;;17.60;12.05;;;;;;;;;;4983951;28;20748;-69
2021/04/18 08:21:43;;;;;;;17.80;11.77;;;;;;;;;;5002128;28;20204;-69
2021/04/18 08:24:28;;;;;;;17.02;11.75;;;;;;;;;;4985425;28;20195;-68
2021/04/18 08:27:08;;;;;;;18.48;12.35;;;;;;;;;;4992427;28;20203;-69
2021/04/18 08:29:35;;;;;;;20.10;11.40;;;;;;;;;;4987752;28;20241;-69
2021/04/18 08:32:10;;;;;;;17.80;11.25;;;;;;;;;;4991903;28;20786;-69
2021/04/18 08:34:42;;;;;;;19.50;11.77;;;;;;;;;;4983955;28;20582;-70
2021/04/18 08:37:15;;;;;;;19.13;11.93;;;;;;;;;;4990662;28;20195;-69
2021/04/18 08:39:42;;;;;;;23.93;12.63;;;;;;;;;;4986516;28;20195;-69
2021/04/18 08:42:09;;;;;;;20.50;13.40;;;;;;;;;;4992080;28;20180;-68
2021/04/18 08:44:35;;;;;;;20.30;12.27;;;;;;;;;;4983805;28;20238;-69
2021/04/18 08:47:08;;;;;;;24.45;11.60;;;;;;;;;;4999367;28;20178;-68
2021/04/18 08:49:36;;;;;;;19.92;11.88;;;;;;;;;;4986564;28;20184;-69
2021/04/18 08:52:04;;;;;;;17.45;11.40;;;;;;;;;;4990925;28;20226;-69
2021/04/18 08:54:36;;;;;;;16.27;11.15;;;;;;;;;;4984427;28;20202;-68
2021/04/18 08:57:06;;;;;;;16.13;10.52;;;;;;;;;;4994273;28;20191;-69
2021/04/18 08:59:32;;;;;;;19.23;10.55;;;;;;;;;;4983626;28;20187;-69
2021/04/18 09:02:00;;;;;;;14.88;10.38;;;;;;;;;;4990801;28;20321;-69
2021/04/18 09:04:28;;;;;;;19.58;10.68;;;;;;;;;;4983829;28;20283;-69
2021/04/18 09:06:54;;;;;;;12.93;8.80;;;;;;;;;;4991197;28;20225;-69
2021/04/18 09:09:19;;;;;;;14.38;9.93;;;;;;;;;;4991041;28;20705;-69
2021/04/18 09:11:48;;;;;;;16.10;9.73;;;;;;;;;;4982407;28;20207;-69
2021/04/18 09:14:38;;;;;;;13.60;8.13;;;;;;;;;;4990850;28;20196;-69
2021/04/18 09:17:23;;;;;;;13.18;9.25;;;;;;;;;;4984488;28;20650;-70
2021/04/18 09:19:56;;;;;;;14.02;9.20;;;;;;;;;;4993735;28;20187;-71
2021/04/18 09:22:28;;;;;;;15.80;9.77;;;;;;;;;;4992133;28;20655;-69
2021/04/18 09:25:05;;;;;;;17.95;9.48;;;;;;;;;;4992878;28;20309;-69
2021/04/18 09:27:33;;;;;;;18.65;9.23;;;;;;;;;;4988199;28;20195;-69
2021/04/18 09:29:59;;;;;;;14.55;8.85;;;;;;;;;;4994650;28;20921;-69
2021/04/18 09:32:29;;;;;;;15.60;8.60;;;;;;;;;;4983139;28;20298;-70
2021/04/18 09:34:55;;;;;;;13.93;8.30;;;;;;;;;;4996148;28;20557;-70
2021/04/18 09:37:27;;;;;;;13.38;8.68;;;;;;;;;;4984654;28;20194;-70
2021/04/18 09:39:59;;;;;;;14.50;9.10;;;;;;;;;;4991413;28;20548;-69
2021/04/18 09:42:26;;;;;;;13.40;8.68;;;;;;;;;;4987452;28;20190;-70
2021/04/18 09:44:54;;;;;;;11.77;8.23;;;;;;;;;;4991278;28;20442;-70
2021/04/18 09:47:25;;;;;;;17.63;9.15;;;;;;;;;;4985203;28;20253;-70
2021/04/18 09:49:58;;;;;;;14.35;7.80;;;;;;;;;;4994045;28;20185;-70
2021/04/18 09:52:26;;;;;;;15.40;7.75;;;;;;;;;;4985316;28;20651;-69
2021/04/18 09:54:52;;;;;;;13.55;7.90;;;;;;;;;;4994500;28;20199;-69
2021/04/18 09:57:23;;;;;;;11.77;7.72;;;;;;;;;;4982054;28;20773;-69
2021/04/18 10:00:24;;;;;;;12.38;6.75;;;;;;;;;;4988042;28;20706;-69
2021/04/18 10:03:02;;;;;;;12.38;5.88;;;;;;;;;;4975548;28;20773;-69
2021/04/18 10:05:29;;;;;;;11.20;5.53;;;;;;;;;;4991333;28;20765;-69
2021/04/18 10:08:14;;;;;;;12.52;5.78;;;;;;;;;;4981831;28;20233;-70
2021/04/18 10:10:39;;;;;;;11.88;6.63;;;;;;;;;;4993855;28;20235;-69
2021/04/18 10:13:04;;;;;;;9.93;5.55;;;;;;;;;;4987561;28;20324;-69
2021/04/18 10:15:30;;;;;;;12.20;6.13;;;;;;;;;;4993544;28;20195;-69
2021/04/18 10:17:55;;;;;;;12.68;5.70;;;;;;;;;;4996299;28;20191;-69
2021/04/18 10:20:27;;;;;;;9.38;6.10;;;;;;;;;;4982289;28;20250;-69
2021/04/18 10:23:09;;;;;;;8.88;5.10;;;;;;;;;;4994674;28;20209;-70
2021/04/18 10:25:37;;;;;;;13.43;5.90;;;;;;;;;;4982645;28;20213;-69
2021/04/18 10:28:03;;;;;;;9.77;5.50;;;;;;;;;;4992703;28;20721;-69
2021/04/18 10:30:29;;;;;;;7.78;5.07;;;;;;;;;;4984374;28;20282;-70
2021/04/18 10:32:55;;;;;;;8.18;5.25;;;;;;;;;;4990875;28;20781;-70
2021/04/18 10:35:20;;;;;;;9.65;5.88;;;;;;;;;;4986230;28;20295;-69
2021/04/18 10:37:47;;;;;;;10.27;5.80;;;;;;;;;;4992258;28;20685;-69
2021/04/18 10:40:14;;;;;;;8.48;5.45;;;;;;;;;;4982985;28;20613;-69
2021/04/18 10:42:40;;;;;;;16.38;6.13;;;;;;;;;;4989659;28;20191;-70
2021/04/18 10:45:06;;;;;;;11.85;6.15;;;;;;;;;;4986779;28;20227;-70
2021/04/18 10:47:32;;;;;;;10.48;6.18;;;;;;;;;;4991037;28;20662;-70
2021/04/18 10:49:59;;;;;;;11.38;6.45;;;;;;;;;;4986462;28;20187;-70
2021/04/18 10:52:25;;;;;;;8.68;5.53;;;;;;;;;;4993050;28;20238;-69
2021/04/18 10:54:50;;;;;;;9.88;6.10;;;;;;;;;;4995397;28;20219;-70
2021/04/18 10:57:16;;;;;;;7.90;5.72;;;;;;;;;;4980864;28;20227;-69
2021/04/18 10:59:41;;;;;;;11.27;6.65;;;;;;;;;;4991550;28;20191;-70
2021/04/18 11:02:07;;;;;;;9.98;5.90;;;;;;;;;;4984696;28;20857;-70
2021/04/18 11:04:33;;;;;;;8.25;5.88;;;;;;;;;;4993922;28;20183;-69
2021/04/18 11:06:58;;;;;;;14.82;6.40;;;;;;;;;;4982486;28;20261;-70
2021/04/18 11:09:24;;;;;;;9.65;6.07;;;;;;;;;;4996987;28;20272;-70
2021/04/18 11:11:49;;;;;;;10.73;6.30;;;;;;;;;;4988363;28;20262;-70
2021/04/18 11:14:15;;;;;;;11.63;5.82;;;;;;;;;;4994333;28;20187;-70
2021/04/18 11:16:40;;;;;;;10.30;5.70;;;;;;;;;;4982151;28;20249;-70
2021/04/18 11:19:05;;;;;;;11.73;6.00;;;;;;;;;;4994285;28;20230;-70
2021/04/18 11:21:31;;;;;;;11.82;5.95;;;;;;;;;;4985683;28;20214;-68
2021/04/18 11:23:57;;;;;;;9.00;6.05;;;;;;;;;;4996357;28;20268;-69
2021/04/18 11:26:24;;;;;;;8.93;5.60;;;;;;;;;;4991903;28;20286;-69
2021/04/18 11:28:50;;;;;;;9.05;5.63;;;;;;;;;;4982018;28;20586;-69
2021/04/18 11:31:16;;;;;;;10.27;5.47;;;;;;;;;;4991933;28;20609;-70
2021/04/18 11:33:42;;;;;;;9.90;5.47;;;;;;;;;;4976980;28;20191;-69
2021/04/18 11:36:07;;;;;;;9.85;5.20;;;;;;;;;;4983674;28;20203;-70
2021/04/18 11:38:33;;;;;;;8.70;5.15;;;;;;;;;;4984361;28;20502;-70
2021/04/18 11:40:59;;;;;;;11.23;4.80;;;;;;;;;;4992641;28;20195;-70
2021/04/18 11:43:24;;;;;;;8.73;4.80;;;;;;;;;;4983338;28;20190;-70
2021/04/18 11:45:50;;;;;;;9.15;4.70;;;;;;;;;;4999054;28;20260;-69
2021/04/18 11:48:16;;;;;;;8.82;5.28;;;;;;;;;;4982946;28;20586;-70
2021/04/18 11:50:41;;;;;;;9.07;5.43;;;;;;;;;;4996050;28;20227;-70
2021/04/18 11:53:07;;;;;;;7.32;4.95;;;;;;;;;;4982592;28;20230;-69
2021/04/18 11:55:34;;;;;;;7.05;4.85;;;;;;;;;;4996443;28;20219;-69
2021/04/18 11:57:59;;;;;;;8.15;4.93;;;;;;;;;;4993546;28;20191;-69
2021/04/18 12:00:25;;;;;;;10.57;5.72;;;;;;;;;;4986982;28;20697;-70
2021/04/18 12:02:50;;;;;;;9.23;4.93;;;;;;;;;;4987971;28;20450;-70
2021/04/18 12:05:16;;;;;;;10.48;5.30;;;;;;;;;;4981815;28;20418;-69
2021/04/18 12:07:42;;;;;;;8.98;5.15;;;;;;;;;;4989898;28;20248;-69
2021/04/18 12:10:08;;;;;;;8.90;5.43;;;;;;;;;;4981367;28;20203;-70
2021/04/18 12:12:34;;;;;;;9.30;5.40;;;;;;;;;;5006654;28;20210;-70
2021/04/18 12:14:59;;;;;;;9.18;5.53;;;;;;;;;;4984474;28;20573;-70
2021/04/18 12:17:26;;;;;;;7.88;5.40;;;;;;;;;;4990284;28;20742;-70
2021/04/18 12:19:51;;;;;;;10.95;5.10;;;;;;;;;;4985178;28;20199;-69
2021/04/18 12:22:16;;;;;;;11.05;6.00;;;;;;;;;;4994266;28;20182;-69
2021/04/18 12:24:42;;;;;;;10.65;5.07;;;;;;;;;;4990241;28;20254;-69
2021/04/18 12:27:08;;;;;;;8.25;5.32;;;;;;;;;;4990533;28;20186;-69
2021/04/18 12:29:33;;;;;;;9.43;5.63;;;;;;;;;;4991647;28;20328;-69
2021/04/18 12:31:59;;;;;;;7.28;5.40;;;;;;;;;;4980615;28;20567;-69
2021/04/18 12:34:24;;;;;;;10.73;5.80;;;;;;;;;;4994276;28;20651;-69
2021/04/18 12:36:50;;;;;;;9.55;5.95;;;;;;;;;;4986474;28;20723;-69
2021/04/18 12:39:16;;;;;;;10.75;5.10;;;;;;;;;;4986783;28;20191;-70
2021/04/18 12:41:41;;;;;;;10.10;5.85;;;;;;;;;;4982645;28;20217;-70
2021/04/18 12:44:07;;;;;;;9.55;5.80;;;;;;;;;;4993814;28;20569;-68
2021/04/18 12:46:32;;;;;;;8.40;5.68;;;;;;;;;;4988918;28;20191;-69
2021/04/18 12:48:58;;;;;;;9.85;5.30;;;;;;;;;;4993275;28;20190;-69
2021/04/18 12:51:26;;;;;;;9.27;5.40;;;;;;;;;;4985547;28;20518;-69
2021/04/18 12:53:52;;;;;;;8.23;4.85;;;;;;;;;;4991906;28;20274;-69
2021/04/18 12:56:17;;;;;;;8.27;5.18;;;;;;;;;;4982629;28;20269;-69
2021/04/18 12:58:43;;;;;;;9.63;5.20;;;;;;;;;;4299242;28;10000710;-69
2021/04/18 13:01:08;;;;;;;8.70;5.30;;;;;;;;;;4995529;28;20195;-69
2021/04/18 13:03:33;;;;;;;8.70;4.68;;;;;;;;;;4977517;28;20237;-70
2021/04/18 13:05:59;;;;;;;6.38;4.38;;;;;;;;;;4987288;28;20202;-69
2021/04/18 13:08:24;;;;;;;8.65;5.18;;;;;;;;;;4980547;28;20226;-70
2021/04/18 13:10:49;;;;;;;9.65;5.30;;;;;;;;;;4989556;28;20282;-70
2021/04/18 13:13:15;;;;;;;7.55;4.80;;;;;;;;;;4977179;28;20195;-69
2021/04/18 13:15:41;;;;;;;7.68;4.63;;;;;;;;;;4991740;28;20187;-69
2021/04/18 13:18:09;;;;;;;8.98;4.93;;;;;;;;;;4986130;28;20187;-69
2021/04/18 13:20:34;;;;;;;7.65;4.70;;;;;;;;;;4988980;28;20186;-69
2021/04/18 13:22:59;;;;;;;7.63;4.15;;;;;;;;;;4979137;28;20191;-70
2021/04/18 13:25:25;;;;;;;8.80;4.63;;;;;;;;;;4990825;28;20662;-69
2021/04/18 13:27:50;;;;;;;9.32;4.93;;;;;;;;;;4987945;28;20590;-70
2021/04/18 13:30:16;;;;;;;11.65;4.88;;;;;;;;;;4985825;28;20658;-70
2021/04/18 13:32:42;;;;;;;9.32;4.90;;;;;;;;;;4994555;28;20289;-69
2021/04/18 13:35:09;;;;;;;5.82;4.43;;;;;;;;;;4981371;28;20197;-69
2021/04/18 13:37:35;;;;;;;8.80;4.82;;;;;;;;;;4996187;28;20195;-69
2021/04/18 13:40:00;;;;;;;7.82;3.95;;;;;;;;;;4984420;28;20213;-70
2021/04/18 13:42:25;;;;;;;7.53;5.25;;;;;;;;;;4989952;28;20661;-70
2021/04/18 13:44:51;;;;;;;8.52;4.22;;;;;;;;;;4978435;28;20231;-70
2021/04/18 13:47:17;;;;;;;8.43;4.85;;;;;;;;;;4991828;28;20188;-69
2021/04/18 13:49:42;;;;;;;7.82;4.25;;;;;;;;;;4978648;28;20196;-70
2021/04/18 13:52:07;;;;;;;5.95;4.50;;;;;;;;;;4991168;28;20261;-70
2021/04/18 13:54:33;;;;;;;7.53;4.20;;;;;;;;;;4984795;28;20190;-69
2021/04/18 13:56:58;;;;;;;11.35;5.15;;;;;;;;;;4986508;28;20204;-69
2021/04/18 13:59:24;;;;;;;6.43;4.20;;;;;;;;;;4978391;28;20187;-69
2021/04/18 14:01:49;;;;;;;7.75;4.53;;;;;;;;;;4993197;28;20563;-69
2021/04/18 14:04:14;;;;;;;8.55;4.55;;;;;;;;;;4991190;28;20240;-69
2021/04/18 14:06:40;;;;;;;9.95;4.40;;;;;;;;;;4982967;28;20240;-69
2021/04/18 14:09:05;;;;;;;8.50;4.40;;;;;;;;;;4995542;28;20293;-70
2021/04/18 14:11:30;;;;;;;8.95;4.60;;;;;;;;;;4982967;28;20206;-69
2021/04/18 14:13:56;;;;;;;7.72;4.03;;;;;;;;;;4991777;28;20202;-70
2021/04/18 14:16:21;;;;;;;11.30;4.25;;;;;;;;;;4975075;28;20183;-70
2021/04/18 14:18:46;;;;;;;6.53;3.88;;;;;;;;;;4988597;28;21332;-69
2021/04/18 14:21:12;;;;;;;5.10;4.05;;;;;;;;;;4976871;28;20233;-70
2021/04/18 14:23:37;;;;;;;6.57;4.25;;;;;;;;;;4985466;28;20191;-70